sensor_id;sensor_type;location;lat;lon;timestamp;pressure;altitude;pressure_sealevel;temperature;humidity
42125;BME280;27787;44.594;11.046;2023-05-16T00:02:42;99998.31;;;15.93;95.72
42125;BME280;27787;44.594;11.046;2023-05-16T00:05:26;100004.47;;;15.95;95.86
42125;BME280;27787;44.594;11.046;2023-05-16T00:08:11;100000.00;;;15.96;95.64
42125;BME280;27787;44.594;11.046;2023-05-16T00:10:55;99998.31;;;15.93;95.75
42125;BME280;27787;44.594;11.046;2023-05-16T00:13:39;99993.94;;;15.90;96.33
42125;BME280;27787;44.594;11.046;2023-05-16T00:16:25;99995.84;;;15.85;96.36
42125;BME280;27787;44.594;11.046;2023-05-16T00:19:12;100002.00;;;15.87;96.47
42125;BME280;27787;44.594;11.046;2023-05-16T00:21:56;99996.56;;;15.92;96.17
42125;BME280;27787;44.594;11.046;2023-05-16T00:24:40;99991.34;;;15.89;96.46
42125;BME280;27787;44.594;11.046;2023-05-16T00:27:25;99986.03;;;15.87;96.44
42125;BME280;27787;44.594;11.046;2023-05-16T00:30:09;99982.44;;;15.90;96.34
42125;BME280;27787;44.594;11.046;2023-05-16T00:32:54;99985.09;;;15.90;96.51
42125;BME280;27787;44.594;11.046;2023-05-16T00:35:38;99982.34;;;15.93;96.04
42125;BME280;27787;44.594;11.046;2023-05-16T00:38:23;99967.38;;;15.89;96.16
42125;BME280;27787;44.594;11.046;2023-05-16T00:41:07;99963.81;;;15.88;96.14
42125;BME280;27787;44.594;11.046;2023-05-16T00:43:54;99958.53;;;15.87;96.77
42125;BME280;27787;44.594;11.046;2023-05-16T00:46:38;99960.13;;;15.94;95.98
42125;BME280;27787;44.594;11.046;2023-05-16T00:49:23;99965.53;;;15.91;95.81
42125;BME280;27787;44.594;11.046;2023-05-16T00:52:07;99960.22;;;15.91;96.18
42125;BME280;27787;44.594;11.046;2023-05-16T00:54:51;99953.94;;;15.93;96.38
42125;BME280;27787;44.594;11.046;2023-05-16T00:57:37;99956.56;;;15.95;95.50
42125;BME280;27787;44.594;11.046;2023-05-16T01:00:21;99959.34;;;15.90;96.08
42125;BME280;27787;44.594;11.046;2023-05-16T01:03:05;99954.97;;;15.88;96.53
42125;BME280;27787;44.594;11.046;2023-05-16T01:05:50;99940.09;;;15.81;96.78
42125;BME280;27787;44.594;11.046;2023-05-16T01:08:34;99945.38;;;15.82;96.41
42125;BME280;27787;44.594;11.046;2023-05-16T01:14:21;99935.72;;;15.78;96.99
42125;BME280;27787;44.594;11.046;2023-05-16T01:20:53;99931.22;;;15.80;96.51
42125;BME280;27787;44.594;11.046;2023-05-16T01:23:50;99921.47;;;15.81;97.11
42125;BME280;27787;44.594;11.046;2023-05-16T01:26:34;99919.56;;;15.84;96.88
42125;BME280;27787;44.594;11.046;2023-05-16T01:29:19;99916.88;;;15.86;96.07
42125;BME280;27787;44.594;11.046;2023-05-16T01:32:04;99914.22;;;15.86;95.79
42125;BME280;27787;44.594;11.046;2023-05-16T01:34:51;99908.88;;;15.86;95.47
42125;BME280;27787;44.594;11.046;2023-05-16T01:37:44;99913.22;;;15.90;94.95
42125;BME280;27787;44.594;11.046;2023-05-16T01:40:44;99902.69;;;15.85;95.52
42125;BME280;27787;44.594;11.046;2023-05-16T01:43:37;99899.81;;;15.93;94.28
42125;BME280;27787;44.594;11.046;2023-05-16T01:46:26;99892.66;;;15.95;93.91
42125;BME280;27787;44.594;11.046;2023-05-16T01:52:07;99893.53;;;15.96;93.91
42125;BME280;27787;44.594;11.046;2023-05-16T01:54:55;99896.25;;;15.94;94.26
42125;BME280;27787;44.594;11.046;2023-05-16T01:57:42;99881.00;;;15.99;93.60
42125;BME280;27787;44.594;11.046;2023-05-16T02:00:28;99872.19;;;15.97;93.38
42125;BME280;27787;44.594;11.046;2023-05-16T02:03:17;99873.25;;;15.91;93.95
42125;BME280;27787;44.594;11.046;2023-05-16T02:06:03;99875.91;;;15.91;93.69
42125;BME280;27787;44.594;11.046;2023-05-16T02:08:47;99878.44;;;15.96;93.26
42125;BME280;27787;44.594;11.046;2023-05-16T02:11:35;99874.03;;;15.95;93.20
42125;BME280;27787;44.594;11.046;2023-05-16T02:14:19;99875.78;;;15.96;93.18
42125;BME280;27787;44.594;11.046;2023-05-16T02:17:03;99875.69;;;15.99;92.57
42125;BME280;27787;44.594;11.046;2023-05-16T02:19:47;99872.09;;;16.02;92.01
42125;BME280;27787;44.594;11.046;2023-05-16T02:22:35;99866.88;;;15.97;92.25
42125;BME280;27787;44.594;11.046;2023-05-16T02:25:20;99866.88;;;15.97;92.29
42125;BME280;27787;44.594;11.046;2023-05-16T02:28:04;99877.56;;;15.96;92.36
42125;BME280;27787;44.594;11.046;2023-05-16T02:30:56;99864.31;;;15.94;92.44
42125;BME280;27787;44.594;11.046;2023-05-16T02:33:40;99865.22;;;15.93;92.42
42125;BME280;27787;44.594;11.046;2023-05-16T02:36:26;99875.91;;;15.91;92.68
42125;BME280;27787;44.594;11.046;2023-05-16T02:39:10;99878.63;;;15.90;92.44
42125;BME280;27787;44.594;11.046;2023-05-16T02:41:55;99870.66;;;15.88;92.35
42125;BME280;27787;44.594;11.046;2023-05-16T02:44:39;99878.78;;;15.84;92.87
42125;BME280;27787;44.594;11.046;2023-05-16T02:47:24;99880.47;;;15.86;92.68
42125;BME280;27787;44.594;11.046;2023-05-16T02:50:08;99881.28;;;15.90;92.19
42125;BME280;27787;44.594;11.046;2023-05-16T02:52:52;99883.84;;;15.93;92.58
42125;BME280;27787;44.594;11.046;2023-05-16T02:55:36;99889.91;;;15.98;92.08
42125;BME280;27787;44.594;11.046;2023-05-16T02:58:20;99889.75;;;16.04;91.51
42125;BME280;27787;44.594;11.046;2023-05-16T03:01:04;99896.72;;;16.08;91.36
42125;BME280;27787;44.594;11.046;2023-05-16T03:03:49;99892.22;;;16.10;91.55
42125;BME280;27787;44.594;11.046;2023-05-16T03:06:34;99895.53;;;16.18;91.47
42125;BME280;27787;44.594;11.046;2023-05-16T03:09:18;99897.09;;;16.26;91.73
42125;BME280;27787;44.594;11.046;2023-05-16T03:12:02;99899.59;;;16.32;91.58
42125;BME280;27787;44.594;11.046;2023-05-16T03:14:46;99914.44;;;16.39;91.57
42125;BME280;27787;44.594;11.046;2023-05-16T03:17:31;99910.66;;;16.47;91.63
42125;BME280;27787;44.594;11.046;2023-05-16T03:20:15;99911.34;;;16.54;92.17
42125;BME280;27787;44.594;11.046;2023-05-16T03:22:59;99909.50;;;16.56;92.35
42125;BME280;27787;44.594;11.046;2023-05-16T03:25:43;99913.84;;;16.59;93.07
42125;BME280;27787;44.594;11.046;2023-05-16T03:28:29;99927.28;;;16.56;93.65
42125;BME280;27787;44.594;11.046;2023-05-16T03:31:13;99931.75;;;16.53;94.59
42125;BME280;27787;44.594;11.046;2023-05-16T03:33:58;99923.91;;;16.49;95.17
42125;BME280;27787;44.594;11.046;2023-05-16T03:36:42;99934.63;;;16.47;95.79
42125;BME280;27787;44.594;11.046;2023-05-16T03:39:26;99926.72;;;16.44;95.87
42125;BME280;27787;44.594;11.046;2023-05-16T03:42:11;99933.94;;;16.41;96.53
42125;BME280;27787;44.594;11.046;2023-05-16T03:44:55;99946.47;;;16.37;96.03
42125;BME280;27787;44.594;11.046;2023-05-16T03:47:39;99948.41;;;16.32;95.83
42125;BME280;27787;44.594;11.046;2023-05-16T03:50:24;99951.22;;;16.28;95.48
42125;BME280;27787;44.594;11.046;2023-05-16T03:53:08;99958.47;;;16.21;95.46
42125;BME280;27787;44.594;11.046;2023-05-16T03:55:53;99965.66;;;16.19;96.71
42125;BME280;27787;44.594;11.046;2023-05-16T03:58:36;99971.06;;;16.16;97.17
42125;BME280;27787;44.594;11.046;2023-05-16T04:01:20;99964.94;;;16.12;97.38
42125;BME280;27787;44.594;11.046;2023-05-16T04:04:05;99958.97;;;16.04;96.95
42125;BME280;27787;44.594;11.046;2023-05-16T04:06:49;99962.75;;;15.96;97.38
42125;BME280;27787;44.594;11.046;2023-05-16T04:09:34;99962.13;;;15.86;97.83
42125;BME280;27787;44.594;11.046;2023-05-16T04:12:18;99957.88;;;15.79;99.08
42125;BME280;27787;44.594;11.046;2023-05-16T04:15:02;99960.69;;;15.73;100.00
42125;BME280;27787;44.594;11.046;2023-05-16T04:17:47;99964.38;;;15.69;100.00
42125;BME280;27787;44.594;11.046;2023-05-16T04:20:31;99959.22;;;15.62;100.00
42125;BME280;27787;44.594;11.046;2023-05-16T04:23:14;99953.91;;;15.62;100.00
42125;BME280;27787;44.594;11.046;2023-05-16T04:25:59;99940.59;;;15.61;100.00
42125;BME280;27787;44.594;11.046;2023-05-16T04:28:44;99945.97;;;15.58;100.00
42125;BME280;27787;44.594;11.046;2023-05-16T04:31:28;99943.38;;;15.56;100.00
42125;BME280;27787;44.594;11.046;2023-05-16T04:34:12;99938.03;;;15.56;100.00
42125;BME280;27787;44.594;11.046;2023-05-16T04:36:56;99918.72;;;15.50;100.00
42125;BME280;27787;44.594;11.046;2023-05-16T04:39:41;99927.69;;;15.46;98.88
42125;BME280;27787;44.594;11.046;2023-05-16T04:42:25;99937.63;;;15.39;99.22
42125;BME280;27787;44.594;11.046;2023-05-16T04:45:09;99925.25;;;15.38;99.59
42125;BME280;27787;44.594;11.046;2023-05-16T04:47:54;99918.31;;;15.31;96.20
42125;BME280;27787;44.594;11.046;2023-05-16T04:50:39;99920.56;;;15.12;97.62
42125;BME280;27787;44.594;11.046;2023-05-16T04:53:24;99909.38;;;14.99;97.84
42125;BME280;27787;44.594;11.046;2023-05-16T04:56:08;99916.66;;;14.91;98.14
42125;BME280;27787;44.594;11.046;2023-05-16T04:58:52;99922.22;;;14.81;100.00
42125;BME280;27787;44.594;11.046;2023-05-16T05:01:37;99932.78;;;14.82;100.00
42125;BME280;27787;44.594;11.046;2023-05-16T05:04:22;99947.88;;;14.82;99.18
42125;BME280;27787;44.594;11.046;2023-05-16T05:07:07;99943.38;;;14.85;100.00
42125;BME280;27787;44.594;11.046;2023-05-16T05:09:51;99939.81;;;14.86;100.00
42125;BME280;27787;44.594;11.046;2023-05-16T05:12:37;99945.25;;;14.80;99.86
42125;BME280;27787;44.594;11.046;2023-05-16T05:15:21;99953.41;;;14.71;100.00
42125;BME280;27787;44.594;11.046;2023-05-16T05:18:06;99957.25;;;14.59;100.00
42125;BME280;27787;44.594;11.046;2023-05-16T05:20:49;99953.75;;;14.56;100.00
42125;BME280;27787;44.594;11.046;2023-05-16T05:23:35;99939.75;;;14.49;100.00
42125;BME280;27787;44.594;11.046;2023-05-16T05:26:19;99930.16;;;14.40;100.00
42125;BME280;27787;44.594;11.046;2023-05-16T05:29:05;99916.09;;;14.37;100.00
42125;BME280;27787;44.594;11.046;2023-05-16T05:31:49;99913.53;;;14.32;100.00
42125;BME280;27787;44.594;11.046;2023-05-16T05:34:33;99903.81;;;14.31;100.00
42125;BME280;27787;44.594;11.046;2023-05-16T05:37:17;99908.16;;;14.35;100.00
42125;BME280;27787;44.594;11.046;2023-05-16T05:40:02;99904.63;;;14.35;100.00
42125;BME280;27787;44.594;11.046;2023-05-16T05:42:46;99905.44;;;14.38;100.00
42125;BME280;27787;44.594;11.046;2023-05-16T05:45:30;99905.34;;;14.41;100.00
42125;BME280;27787;44.594;11.046;2023-05-16T05:48:15;99905.50;;;14.35;100.00
42125;BME280;27787;44.594;11.046;2023-05-16T05:50:59;99918.75;;;14.37;100.00
42125;BME280;27787;44.594;11.046;2023-05-16T05:53:43;99925.03;;;14.31;100.00
42125;BME280;27787;44.594;11.046;2023-05-16T05:56:28;99921.59;;;14.28;100.00
42125;BME280;27787;44.594;11.046;2023-05-16T05:59:12;99927.91;;;14.22;100.00
42125;BME280;27787;44.594;11.046;2023-05-16T06:01:56;99927.06;;;14.20;100.00
42125;BME280;27787;44.594;11.046;2023-05-16T06:04:40;99932.44;;;14.17;100.00
42125;BME280;27787;44.594;11.046;2023-05-16T06:07:25;99929.78;;;14.17;100.00
42125;BME280;27787;44.594;11.046;2023-05-16T06:10:09;99928.91;;;14.16;100.00
42125;BME280;27787;44.594;11.046;2023-05-16T06:12:53;99906.97;;;14.08;100.00
42125;BME280;27787;44.594;11.046;2023-05-16T06:15:37;99899.13;;;14.02;100.00
42125;BME280;27787;44.594;11.046;2023-05-16T06:18:21;99893.88;;;13.99;100.00
42125;BME280;27787;44.594;11.046;2023-05-16T06:21:05;99895.66;;;13.99;100.00
42125;BME280;27787;44.594;11.046;2023-05-16T06:23:50;99904.34;;;14.05;100.00
42125;BME280;27787;44.594;11.046;2023-05-16T06:26:35;99890.97;;;14.11;100.00
42125;BME280;27787;44.594;11.046;2023-05-16T06:29:19;99890.91;;;14.14;100.00
42125;BME280;27787;44.594;11.046;2023-05-16T06:32:03;99888.31;;;14.11;100.00
42125;BME280;27787;44.594;11.046;2023-05-16T06:34:48;99902.44;;;14.13;100.00
42125;BME280;27787;44.594;11.046;2023-05-16T06:37:32;99910.34;;;14.15;100.00
42125;BME280;27787;44.594;11.046;2023-05-16T06:40:16;99924.50;;;14.15;100.00
42125;BME280;27787;44.594;11.046;2023-05-16T06:43:01;99926.22;;;14.20;100.00
42125;BME280;27787;44.594;11.046;2023-05-16T06:45:45;99916.34;;;14.25;100.00
42125;BME280;27787;44.594;11.046;2023-05-16T06:48:29;99914.56;;;14.25;100.00
42125;BME280;27787;44.594;11.046;2023-05-16T06:51:13;99908.47;;;14.22;100.00
42125;BME280;27787;44.594;11.046;2023-05-16T06:53:58;99899.75;;;14.15;100.00
42125;BME280;27787;44.594;11.046;2023-05-16T06:56:42;99902.47;;;14.12;100.00
42125;BME280;27787;44.594;11.046;2023-05-16T06:59:26;99911.38;;;14.09;100.00
42125;BME280;27787;44.594;11.046;2023-05-16T07:02:10;99900.81;;;14.05;100.00
42125;BME280;27787;44.594;11.046;2023-05-16T07:04:54;99900.09;;;13.98;100.00
42125;BME280;27787;44.594;11.046;2023-05-16T07:07:39;99902.81;;;13.95;100.00
42125;BME280;27787;44.594;11.046;2023-05-16T07:10:23;99903.72;;;13.93;100.00
42125;BME280;27787;44.594;11.046;2023-05-16T07:13:08;99900.25;;;13.91;100.00
42125;BME280;27787;44.594;11.046;2023-05-16T07:15:52;99895.91;;;13.86;100.00
42125;BME280;27787;44.594;11.046;2023-05-16T07:18:37;99903.00;;;13.86;100.00
42125;BME280;27787;44.594;11.046;2023-05-16T07:21:20;99894.22;;;13.82;100.00
42125;BME280;27787;44.594;11.046;2023-05-16T07:24:05;99889.97;;;13.74;100.00
42125;BME280;27787;44.594;11.046;2023-05-16T07:26:49;99893.53;;;13.73;100.00
42125;BME280;27787;44.594;11.046;2023-05-16T07:29:34;99892.72;;;13.69;100.00
42125;BME280;27787;44.594;11.046;2023-05-16T07:32:20;99903.22;;;13.74;100.00
42125;BME280;27787;44.594;11.046;2023-05-16T07:35:04;99897.09;;;13.72;100.00
42125;BME280;27787;44.594;11.046;2023-05-16T07:37:49;99872.31;;;13.73;100.00
42125;BME280;27787;44.594;11.046;2023-05-16T07:40:33;99883.00;;;13.70;100.00
42125;BME280;27787;44.594;11.046;2023-05-16T07:43:17;99895.50;;;13.62;100.00
42125;BME280;27787;44.594;11.046;2023-05-16T07:46:02;99897.31;;;13.60;100.00
42125;BME280;27787;44.594;11.046;2023-05-16T07:48:46;99891.16;;;13.59;100.00
42125;BME280;27787;44.594;11.046;2023-05-16T07:51:30;99886.78;;;13.56;100.00
42125;BME280;27787;44.594;11.046;2023-05-16T07:54:15;99906.31;;;13.51;100.00
42125;BME280;27787;44.594;11.046;2023-05-16T07:56:59;99906.31;;;13.51;100.00
42125;BME280;27787;44.594;11.046;2023-05-16T07:59:43;99895.72;;;13.49;100.00
42125;BME280;27787;44.594;11.046;2023-05-16T08:02:28;99902.84;;;13.47;100.00
42125;BME280;27787;44.594;11.046;2023-05-16T08:05:13;99892.25;;;13.47;100.00
42125;BME280;27787;44.594;11.046;2023-05-16T08:07:57;99870.19;;;13.45;100.00
42125;BME280;27787;44.594;11.046;2023-05-16T08:10:41;99870.22;;;13.44;100.00
42125;BME280;27787;44.594;11.046;2023-05-16T08:13:25;99857.88;;;13.43;100.00
42125;BME280;27787;44.594;11.046;2023-05-16T08:16:09;99857.81;;;13.46;100.00
42125;BME280;27787;44.594;11.046;2023-05-16T08:18:54;99854.34;;;13.42;100.00
42125;BME280;27787;44.594;11.046;2023-05-16T08:21:38;99856.94;;;13.45;100.00
42125;BME280;27787;44.594;11.046;2023-05-16T08:24:23;99856.81;;;13.51;100.00
42125;BME280;27787;44.594;11.046;2023-05-16T08:27:08;99857.50;;;13.61;100.00
42125;BME280;27787;44.594;11.046;2023-05-16T08:29:52;99868.69;;;13.77;100.00
42125;BME280;27787;44.594;11.046;2023-05-16T08:32:41;99872.09;;;13.83;100.00
42125;BME280;27787;44.594;11.046;2023-05-16T08:35:36;99886.03;;;13.95;100.00
42125;BME280;27787;44.594;11.046;2023-05-16T08:38:26;99900.00;;;14.03;100.00
42125;BME280;27787;44.594;11.046;2023-05-16T08:41:22;99904.25;;;14.11;100.00
42125;BME280;27787;44.594;11.046;2023-05-16T08:44:08;99908.72;;;14.09;100.00
42125;BME280;27787;44.594;11.046;2023-05-16T08:47:07;99899.03;;;14.07;100.00
42125;BME280;27787;44.594;11.046;2023-05-16T08:49:57;99899.88;;;14.09;100.00
42125;BME280;27787;44.594;11.046;2023-05-16T08:52:52;99908.75;;;14.08;100.00
42125;BME280;27787;44.594;11.046;2023-05-16T08:55:40;99909.56;;;14.11;100.00
42125;BME280;27787;44.594;11.046;2023-05-16T08:58:39;99897.13;;;14.13;100.00
42125;BME280;27787;44.594;11.046;2023-05-16T09:01:25;99898.88;;;14.14;100.00
42125;BME280;27787;44.594;11.046;2023-05-16T09:04:14;99910.31;;;14.16;100.00
42125;BME280;27787;44.594;11.046;2023-05-16T09:07:02;99904.97;;;14.18;100.00
42125;BME280;27787;44.594;11.046;2023-05-16T09:09:52;99887.19;;;14.23;100.00
42125;BME280;27787;44.594;11.046;2023-05-16T09:12:43;99896.91;;;14.24;100.00
42125;BME280;27787;44.594;11.046;2023-05-16T09:15:40;99881.03;;;14.21;100.00
42125;BME280;27787;44.594;11.046;2023-05-16T09:18:30;99885.34;;;14.27;100.00
42125;BME280;27787;44.594;11.046;2023-05-16T09:21:18;99889.84;;;14.23;100.00
42125;BME280;27787;44.594;11.046;2023-05-16T09:24:07;99899.50;;;14.26;100.00
42125;BME280;27787;44.594;11.046;2023-05-16T09:27:06;99887.03;;;14.29;100.00
42125;BME280;27787;44.594;11.046;2023-05-16T09:29:58;99894.88;;;14.35;100.00
42125;BME280;27787;44.594;11.046;2023-05-16T09:32:46;99899.22;;;14.39;100.00
42125;BME280;27787;44.594;11.046;2023-05-16T09:35:34;99897.47;;;14.38;100.00
42125;BME280;27787;44.594;11.046;2023-05-16T09:38:19;99882.53;;;14.34;100.00
42125;BME280;27787;44.594;11.046;2023-05-16T09:41:09;99880.78;;;14.33;100.00
42125;BME280;27787;44.594;11.046;2023-05-16T09:43:54;99897.50;;;14.37;100.00
42125;BME280;27787;44.594;11.046;2023-05-16T09:46:38;99909.88;;;14.38;100.00
42125;BME280;27787;44.594;11.046;2023-05-16T09:49:22;99903.75;;;14.34;100.00
42125;BME280;27787;44.594;11.046;2023-05-16T09:52:08;99902.00;;;14.33;100.00
42125;BME280;27787;44.594;11.046;2023-05-16T09:54:53;99899.31;;;14.35;100.00
42125;BME280;27787;44.594;11.046;2023-05-16T09:57:38;99901.16;;;14.33;100.00
42125;BME280;27787;44.594;11.046;2023-05-16T10:00:31;99904.63;;;14.35;100.00
42125;BME280;27787;44.594;11.046;2023-05-16T10:03:16;99905.41;;;14.40;100.00
42125;BME280;27787;44.594;11.046;2023-05-16T10:06:02;99904.56;;;14.38;100.00
42125;BME280;27787;44.594;11.046;2023-05-16T10:08:46;99894.06;;;14.33;100.00
42125;BME280;27787;44.594;11.046;2023-05-16T10:11:31;99907.31;;;14.33;100.00
42125;BME280;27787;44.594;11.046;2023-05-16T10:14:17;99914.28;;;14.39;100.00
42125;BME280;27787;44.594;11.046;2023-05-16T10:17:33;99923.19;;;14.36;100.00
42125;BME280;27787;44.594;11.046;2023-05-16T10:20:19;99918.66;;;14.40;100.00
42125;BME280;27787;44.594;11.046;2023-05-16T10:23:04;99921.13;;;14.51;100.00
42125;BME280;27787;44.594;11.046;2023-05-16T10:25:49;99921.06;;;14.54;100.00
42125;BME280;27787;44.594;11.046;2023-05-16T10:28:34;99920.13;;;14.55;100.00
42125;BME280;27787;44.594;11.046;2023-05-16T10:31:19;99921.13;;;14.51;100.00
42125;BME280;27787;44.594;11.046;2023-05-16T10:34:04;99903.50;;;14.48;100.00
42125;BME280;27787;44.594;11.046;2023-05-16T10:36:49;99919.44;;;14.48;100.00
42125;BME280;27787;44.594;11.046;2023-05-16T10:39:37;99920.34;;;14.47;100.00
42125;BME280;27787;44.594;11.046;2023-05-16T10:42:25;99905.34;;;14.41;100.00
42125;BME280;27787;44.594;11.046;2023-05-16T10:45:18;99912.41;;;14.42;100.00
42125;BME280;27787;44.594;11.046;2023-05-16T10:48:07;99913.28;;;14.44;100.00
42125;BME280;27787;44.594;11.046;2023-05-16T10:51:04;99915.75;;;14.54;100.00
42125;BME280;27787;44.594;11.046;2023-05-16T10:54:10;99909.56;;;14.53;100.00
42125;BME280;27787;44.594;11.046;2023-05-16T10:57:03;99901.72;;;14.49;100.00
42125;BME280;27787;44.594;11.046;2023-05-16T10:59:51;99911.38;;;14.51;100.00
42125;BME280;27787;44.594;11.046;2023-05-16T11:05:33;99897.34;;;14.46;100.00
42125;BME280;27787;44.594;11.046;2023-05-16T11:08:23;99903.56;;;14.42;100.00
42125;BME280;27787;44.594;11.046;2023-05-16T11:11:45;99892.94;;;14.42;100.00
42125;BME280;27787;44.594;11.046;2023-05-16T11:14:55;99884.06;;;14.46;100.00
42125;BME280;27787;44.594;11.046;2023-05-16T11:17:48;99881.38;;;14.48;100.00
42125;BME280;27787;44.594;11.046;2023-05-16T11:20:47;99880.38;;;14.52;100.00
42125;BME280;27787;44.594;11.046;2023-05-16T11:24:27;99885.69;;;14.52;100.00
42125;BME280;27787;44.594;11.046;2023-05-16T11:27:26;99872.31;;;14.56;100.00
42125;BME280;27787;44.594;11.046;2023-05-16T11:30:15;99878.44;;;14.60;100.00
42125;BME280;27787;44.594;11.046;2023-05-16T11:33:03;99864.16;;;14.64;100.00
42125;BME280;27787;44.594;11.046;2023-05-16T11:36:05;99882.72;;;14.65;100.00
42125;BME280;27787;44.594;11.046;2023-05-16T11:39:04;99871.22;;;14.65;100.00
42125;BME280;27787;44.594;11.046;2023-05-16T11:42:14;99865.16;;;14.60;100.00
42125;BME280;27787;44.594;11.046;2023-05-16T11:46:05;99868.66;;;14.62;100.00
42125;BME280;27787;44.594;11.046;2023-05-16T11:48:59;99877.44;;;14.64;100.00
42125;BME280;27787;44.594;11.046;2023-05-16T11:51:56;99870.44;;;14.61;100.00
42125;BME280;27787;44.594;11.046;2023-05-16T11:55:05;99868.66;;;14.62;100.00
42125;BME280;27787;44.594;11.046;2023-05-16T11:58:28;99858.06;;;14.60;100.00
42125;BME280;27787;44.594;11.046;2023-05-16T12:01:35;99858.84;;;14.64;100.00
42125;BME280;27787;44.594;11.046;2023-05-16T12:04:22;99855.25;;;14.66;100.00
42125;BME280;27787;44.594;11.046;2023-05-16T12:07:12;99853.50;;;14.65;100.00
42125;BME280;27787;44.594;11.046;2023-05-16T12:09:58;99851.72;;;14.66;100.00
42125;BME280;27787;44.594;11.046;2023-05-16T12:12:48;99857.94;;;14.65;100.00
42125;BME280;27787;44.594;11.046;2023-05-16T12:15:37;99858.94;;;14.61;100.00
42125;BME280;27787;44.594;11.046;2023-05-16T12:18:23;99856.31;;;14.58;100.00
42125;BME280;27787;44.594;11.046;2023-05-16T12:21:08;99853.66;;;14.58;100.00
42125;BME280;27787;44.594;11.046;2023-05-16T12:23:55;99870.44;;;14.61;100.00
42125;BME280;27787;44.594;11.046;2023-05-16T12:26:42;99861.63;;;14.58;100.00
42125;BME280;27787;44.594;11.046;2023-05-16T12:29:30;99864.28;;;14.58;100.00
42125;BME280;27787;44.594;11.046;2023-05-16T12:32:18;99878.44;;;14.60;100.00
42125;BME280;27787;44.594;11.046;2023-05-16T12:35:09;99878.34;;;14.63;100.00
42125;BME280;27787;44.594;11.046;2023-05-16T12:38:04;99869.56;;;14.61;100.00
42125;BME280;27787;44.594;11.046;2023-05-16T12:40:57;99862.38;;;14.64;100.00
42125;BME280;27787;44.594;11.046;2023-05-16T12:43:43;99863.13;;;14.69;100.00
42125;BME280;27787;44.594;11.046;2023-05-16T12:46:30;99871.94;;;14.73;100.00
42125;BME280;27787;44.594;11.046;2023-05-16T12:49:14;99858.59;;;14.74;100.00
42125;BME280;27787;44.594;11.046;2023-05-16T12:51:58;99866.50;;;14.78;100.00
42125;BME280;27787;44.594;11.046;2023-05-16T12:54:48;99866.41;;;14.81;100.00
42125;BME280;27787;44.594;11.046;2023-05-16T12:57:33;99856.59;;;14.83;100.00
42125;BME280;27787;44.594;11.046;2023-05-16T13:00:19;99861.94;;;14.83;100.00
42125;BME280;27787;44.594;11.046;2023-05-16T13:03:04;99862.75;;;14.86;100.00
42125;BME280;27787;44.594;11.046;2023-05-16T13:05:48;99864.53;;;14.86;100.00
42125;BME280;27787;44.594;11.046;2023-05-16T13:08:32;99870.47;;;14.95;100.00
42125;BME280;27787;44.594;11.046;2023-05-16T13:11:17;99866.91;;;14.96;100.00
42125;BME280;27787;44.594;11.046;2023-05-16T13:14:02;99871.38;;;14.94;100.00
42125;BME280;27787;44.594;11.046;2023-05-16T13:16:46;99870.50;;;14.94;100.00
42125;BME280;27787;44.594;11.046;2023-05-16T13:19:31;99874.78;;;15.01;100.00
42125;BME280;27787;44.594;11.046;2023-05-16T13:22:15;99866.84;;;14.99;100.00
42125;BME280;27787;44.594;11.046;2023-05-16T13:24:59;99865.84;;;15.03;100.00
42125;BME280;27787;44.594;11.046;2023-05-16T13:27:44;99873.06;;;14.98;100.00
42125;BME280;27787;44.594;11.046;2023-05-16T13:30:29;99878.38;;;14.98;100.00
42125;BME280;27787;44.594;11.046;2023-05-16T13:33:13;99874.69;;;15.04;100.00
42125;BME280;27787;44.594;11.046;2023-05-16T13:35:57;99880.97;;;15.01;100.00
42125;BME280;27787;44.594;11.046;2023-05-16T13:38:41;99870.41;;;14.98;100.00
42125;BME280;27787;44.594;11.046;2023-05-16T13:41:26;99871.28;;;14.99;100.00
42125;BME280;27787;44.594;11.046;2023-05-16T13:44:10;99867.72;;;15.00;100.00
42125;BME280;27787;44.594;11.046;2023-05-16T13:46:56;99862.31;;;15.03;100.00
42125;BME280;27787;44.594;11.046;2023-05-16T13:49:41;99851.72;;;15.01;100.00
42125;BME280;27787;44.594;11.046;2023-05-16T13:52:25;99861.53;;;14.99;100.00
42125;BME280;27787;44.594;11.046;2023-05-16T13:55:09;99855.22;;;15.03;100.00
42125;BME280;27787;44.594;11.046;2023-05-16T13:57:53;99862.41;;;15.00;100.00
42125;BME280;27787;44.594;11.046;2023-05-16T14:00:37;99857.97;;;15.00;100.00
42125;BME280;27787;44.594;11.046;2023-05-16T14:03:21;99858.03;;;14.97;100.00
42125;BME280;27787;44.594;11.046;2023-05-16T14:06:06;99858.03;;;14.97;100.00
42125;BME280;27787;44.594;11.046;2023-05-16T14:08:50;99866.88;;;14.98;100.00
42125;BME280;27787;44.594;11.046;2023-05-16T14:11:34;99869.59;;;14.95;100.00
42125;BME280;27787;44.594;11.046;2023-05-16T14:14:19;99870.47;;;14.95;100.00
42125;BME280;27787;44.594;11.046;2023-05-16T14:17:03;99862.56;;;14.92;100.00
42125;BME280;27787;44.594;11.046;2023-05-16T14:19:47;99860.91;;;14.88;100.00
42125;BME280;27787;44.594;11.046;2023-05-16T14:22:31;99871.63;;;14.85;100.00
42125;BME280;27787;44.594;11.046;2023-05-16T14:25:15;99869.84;;;14.84;100.00
42125;BME280;27787;44.594;11.046;2023-05-16T14:27:59;99876.06;;;14.85;100.00
42125;BME280;27787;44.594;11.046;2023-05-16T14:30:43;99871.69;;;14.82;100.00
42125;BME280;27787;44.594;11.046;2023-05-16T14:33:27;99884.91;;;14.85;100.00
42125;BME280;27787;44.594;11.046;2023-05-16T14:36:12;99884.94;;;14.84;100.00
42125;BME280;27787;44.594;11.046;2023-05-16T14:38:57;99890.19;;;14.87;100.00